Time;durP1;ratioP1;P1;durP2;ratioP2;P2;SDS_P1;SDS_P2;PMS_P1;PMS_P2;Temp;Humidity;BMP_temperature;BMP_pressure;BME280_temperature;BME280_humidity;BME280_pressure;Samples;Min_cycle;Max_cycle;Signal;HPM_P1;HPM_P2
2023/09/24 00:00:14;;;;;;;49.83;48.13;;;;;;;;;;5038939;28;20261;-92
2023/09/24 00:02:40;;;;;;;50.73;49.03;;;;;;;;;;5039335;28;20585;-93
2023/09/24 00:05:07;;;;;;;50.53;48.47;;;;;;;;;;5007438;28;20706;-93
2023/09/24 00:07:33;;;;;;;49.97;48.17;;;;;;;;;;5036407;28;20196;-93
2023/09/24 00:10:00;;;;;;;50.87;49.00;;;;;;;;;;5039186;28;20219;-93
2023/09/24 00:12:29;;;;;;;49.87;48.07;;;;;;;;;;5031519;28;20198;-92
2023/09/24 00:14:56;;;;;;;50.30;48.47;;;;;;;;;;5038185;28;20192;-94
2023/09/24 00:17:22;;;;;;;51.40;49.53;;;;;;;;;;5026795;28;20696;-92
2023/09/24 00:19:48;;;;;;;50.90;49.10;;;;;;;;;;5038708;28;20235;-94
2023/09/24 00:22:15;;;;;;;51.07;49.27;;;;;;;;;;5037800;28;20192;-93
2023/09/24 00:24:42;;;;;;;47.27;45.63;;;;;;;;;;5020393;28;20230;-93
2023/09/24 00:27:09;;;;;;;48.93;47.27;;;;;;;;;;5019803;28;20194;-91
2023/09/24 00:29:35;;;;;;;48.47;46.73;;;;;;;;;;5038255;28;20726;-92
2023/09/24 00:32:01;;;;;;;49.63;47.83;;;;;;;;;;5038835;28;20267;-92
2023/09/24 00:34:27;;;;;;;44.53;42.90;;;;;;;;;;5030695;28;20184;-94
2023/09/24 00:36:53;;;;;;;45.47;43.87;;;;;;;;;;5022671;28;20184;-92
2023/09/24 00:39:20;;;;;;;44.07;42.57;;;;;;;;;;5038319;28;20182;-91
2023/09/24 00:41:46;;;;;;;44.03;42.43;;;;;;;;;;5021216;28;20854;-93
2023/09/24 00:44:15;;;;;;;44.43;42.83;;;;;;;;;;5038591;28;20334;-92
2023/09/24 00:46:44;;;;;;;41.53;40.03;;;;;;;;;;5029992;28;20258;-93
2023/09/24 00:49:12;;;;;;;38.13;36.83;;;;;;;;;;5038407;28;20197;-93
2023/09/24 00:51:38;;;;;;;38.57;37.17;;;;;;;;;;5021407;28;20174;-93
2023/09/24 00:54:05;;;;;;;40.57;39.13;;;;;;;;;;5031449;28;20180;-93
2023/09/24 00:56:31;;;;;;;43.37;41.70;;;;;;;;;;5020182;28;20226;-92
2023/09/24 00:58:58;;;;;;;44.47;42.67;;;;;;;;;;5038086;28;20179;-92
2023/09/24 01:01:24;;;;;;;44.03;42.53;;;;;;;;;;5037434;28;20245;-93
2023/09/24 01:03:50;;;;;;;42.83;41.33;;;;;;;;;;5037065;28;21505;-92
2023/09/24 01:06:19;;;;;;;42.80;41.00;;;;;;;;;;5036806;28;20191;-92
2023/09/24 01:08:45;;;;;;;42.83;41.33;;;;;;;;;;5037860;28;20211;-89
2023/09/24 01:11:12;;;;;;;42.97;41.37;;;;;;;;;;5037886;28;20212;-92
2023/09/24 01:13:38;;;;;;;42.50;41.00;;;;;;;;;;5005149;28;1089181;-93
2023/09/24 01:16:06;;;;;;;42.27;40.77;;;;;;;;;;5042522;28;20184;-93
2023/09/24 01:18:37;;;;;;;43.43;41.77;;;;;;;;;;5042280;28;20199;-93
2023/09/24 01:21:13;;;;;;;45.03;43.23;;;;;;;;;;5025254;28;20215;-94
2023/09/24 01:23:45;;;;;;;44.87;43.27;;;;;;;;;;5043416;28;20857;-90
2023/09/24 01:26:12;;;;;;;42.17;40.57;;;;;;;;;;5044290;28;20293;-93
2023/09/24 01:28:39;;;;;;;43.83;42.30;;;;;;;;;;5045747;28;20206;-90
2023/09/24 01:31:05;;;;;;;45.60;43.90;;;;;;;;;;5045569;28;20229;-93
2023/09/24 01:33:38;;;;;;;47.57;45.83;;;;;;;;;;5043820;28;20225;-92
2023/09/24 01:36:04;;;;;;;46.53;44.80;;;;;;;;;;5042446;28;20246;-93
2023/09/24 01:38:31;;;;;;;48.40;46.53;;;;;;;;;;5041772;28;20181;-94
2023/09/24 01:40:59;;;;;;;44.60;42.90;;;;;;;;;;5029985;28;20281;-92
2023/09/24 01:43:25;;;;;;;44.70;43.00;;;;;;;;;;5030480;28;20206;-92
2023/09/24 01:45:51;;;;;;;43.87;42.10;;;;;;;;;;5022118;28;20220;-93
2023/09/24 01:48:17;;;;;;;43.30;41.80;;;;;;;;;;5009959;28;20205;-93
2023/09/24 01:50:44;;;;;;;42.43;40.93;;;;;;;;;;5040927;28;20215;-92
2023/09/24 01:53:10;;;;;;;44.10;42.60;;;;;;;;;;5036270;28;20253;-93
2023/09/24 01:55:36;;;;;;;42.50;41.00;;;;;;;;;;5037508;28;20184;-91
2023/09/24 01:58:02;;;;;;;42.23;40.73;;;;;;;;;;5042619;28;20230;-93
2023/09/24 02:00:28;;;;;;;42.13;40.63;;;;;;;;;;5041889;28;20207;-92
2023/09/24 02:02:57;;;;;;;42.10;40.60;;;;;;;;;;5041298;28;20220;-93
2023/09/24 02:05:23;;;;;;;41.53;39.93;;;;;;;;;;5034186;28;20356;-92
2023/09/24 02:07:49;;;;;;;41.27;39.87;;;;;;;;;;5025625;28;20242;-92
2023/09/24 02:10:20;;;;;;;40.77;39.30;;;;;;;;;;5041906;28;20274;-90
2023/09/24 02:12:47;;;;;;;40.47;38.97;;;;;;;;;;5045500;28;20220;-93
2023/09/24 02:15:17;;;;;;;40.53;39.07;;;;;;;;;;5051922;28;20191;-94
2023/09/24 02:17:44;;;;;;;37.80;36.43;;;;;;;;;;5057385;28;20192;-93
2023/09/24 02:20:22;;;;;;;37.70;36.37;;;;;;;;;;5052726;28;20207;-92
2023/09/24 02:22:49;;;;;;;35.77;34.47;;;;;;;;;;5042663;28;20179;-92
2023/09/24 02:25:19;;;;;;;36.37;35.07;;;;;;;;;;5059294;28;20188;-92
2023/09/24 02:27:45;;;;;;;35.50;34.27;;;;;;;;;;5048219;28;20283;-91
2023/09/24 02:30:13;;;;;;;34.40;32.90;;;;;;;;;;5047899;28;20214;-92
2023/09/24 02:32:39;;;;;;;36.57;35.23;;;;;;;;;;5015872;28;20179;-92
2023/09/24 02:35:05;;;;;;;36.27;35.03;;;;;;;;;;5033675;28;20198;-93
2023/09/24 02:37:32;;;;;;;36.37;35.00;;;;;;;;;;5032177;28;20218;-93
2023/09/24 02:39:59;;;;;;;37.40;36.10;;;;;;;;;;5015063;28;20280;-92
2023/09/24 02:42:25;;;;;;;36.07;34.77;;;;;;;;;;5040384;28;20277;-91
2023/09/24 02:44:51;;;;;;;35.90;34.60;;;;;;;;;;5031639;28;20326;-93
2023/09/24 02:47:17;;;;;;;34.47;33.17;;;;;;;;;;5040033;28;20211;-92
2023/09/24 02:49:43;;;;;;;35.97;34.67;;;;;;;;;;5039940;28;20229;-95
2023/09/24 02:52:09;;;;;;;35.93;34.73;;;;;;;;;;5031912;28;20179;-91
2023/09/24 02:54:36;;;;;;;36.90;35.53;;;;;;;;;;5039660;28;20191;-91
2023/09/24 02:57:03;;;;;;;35.80;34.50;;;;;;;;;;5022005;28;20210;-92
2023/09/24 02:59:29;;;;;;;36.70;35.50;;;;;;;;;;5031481;28;20671;-92
2023/09/24 03:01:56;;;;;;;35.10;33.80;;;;;;;;;;5019926;28;20195;-94
2023/09/24 03:04:22;;;;;;;36.53;35.13;;;;;;;;;;5035769;28;20258;-92
2023/09/24 03:06:48;;;;;;;35.97;34.67;;;;;;;;;;5027062;28;20292;-92
2023/09/24 03:09:15;;;;;;;36.23;35.03;;;;;;;;;;5014088;28;20687;-90
2023/09/24 03:11:41;;;;;;;37.17;35.53;;;;;;;;;;5037401;28;20189;-93
2023/09/24 03:14:07;;;;;;;35.50;34.30;;;;;;;;;;5031810;28;20676;-92
2023/09/24 03:16:33;;;;;;;36.10;34.80;;;;;;;;;;5040949;28;20194;-92
2023/09/24 03:19:01;;;;;;;35.43;34.13;;;;;;;;;;5040180;28;20209;-91
2023/09/24 03:21:27;;;;;;;34.80;33.27;;;;;;;;;;5031768;28;20209;-93
2023/09/24 03:23:53;;;;;;;36.57;35.30;;;;;;;;;;5027993;28;20194;-93
2023/09/24 03:26:19;;;;;;;36.37;35.07;;;;;;;;;;5002215;28;20213;-92
2023/09/24 03:28:47;;;;;;;36.83;35.50;;;;;;;;;;5019551;28;20217;-93
2023/09/24 03:31:16;;;;;;;33.73;32.57;;;;;;;;;;5025132;28;20234;-93
2023/09/24 03:33:42;;;;;;;35.20;33.80;;;;;;;;;;5029516;28;20674;-93
2023/09/24 03:36:08;;;;;;;35.10;33.90;;;;;;;;;;5037683;28;20190;-93
2023/09/24 03:38:35;;;;;;;35.77;34.50;;;;;;;;;;5038636;28;20189;-91
2023/09/24 03:41:02;;;;;;;36.03;34.53;;;;;;;;;;5018738;28;20268;-91
2023/09/24 03:43:28;;;;;;;34.77;33.63;;;;;;;;;;5027644;28;20213;-92
2023/09/24 03:45:54;;;;;;;37.23;35.93;;;;;;;;;;5026696;28;20216;-92
2023/09/24 03:48:20;;;;;;;36.10;34.90;;;;;;;;;;5040589;28;20189;-92
2023/09/24 03:50:46;;;;;;;35.83;34.63;;;;;;;;;;5018895;28;20219;-91
2023/09/24 03:53:12;;;;;;;37.03;35.73;;;;;;;;;;5033017;28;20192;-92
2023/09/24 03:55:39;;;;;;;36.53;35.23;;;;;;;;;;5039067;28;20185;-90
2023/09/24 03:58:08;;;;;;;35.37;33.87;;;;;;;;;;5038993;28;20194;-91
2023/09/24 04:00:34;;;;;;;35.70;34.40;;;;;;;;;;5039946;28;20237;-93
2023/09/24 04:03:00;;;;;;;37.97;36.57;;;;;;;;;;5041054;28;20279;-93
2023/09/24 04:05:27;;;;;;;35.87;34.67;;;;;;;;;;5042267;28;20659;-93
2023/09/24 04:07:55;;;;;;;36.30;35.00;;;;;;;;;;5038475;28;20536;-92
2023/09/24 04:10:22;;;;;;;35.97;34.77;;;;;;;;;;5038668;28;20221;-92
2023/09/24 04:12:51;;;;;;;38.00;36.50;;;;;;;;;;5038574;28;20672;-93
2023/09/24 04:15:19;;;;;;;36.77;35.37;;;;;;;;;;5020592;28;20195;-92
2023/09/24 04:17:46;;;;;;;34.77;33.63;;;;;;;;;;5019178;28;20185;-93
2023/09/24 04:20:20;;;;;;;37.17;35.93;;;;;;;;;;5037768;28;20241;-92
2023/09/24 04:22:46;;;;;;;36.27;34.97;;;;;;;;;;5037763;28;20248;-91
2023/09/24 04:25:14;;;;;;;35.73;34.53;;;;;;;;;;5025310;28;20219;-93
2023/09/24 04:27:40;;;;;;;38.27;36.40;;;;;;;;;;5036706;28;20272;-93
2023/09/24 04:30:16;;;;;;;39.70;38.40;;;;;;;;;;5020635;28;20224;-91
2023/09/24 04:32:52;;;;;;;38.90;37.50;;;;;;;;;;5040710;28;20654;-92
2023/09/24 04:35:19;;;;;;;39.57;38.17;;;;;;;;;;5040739;28;20180;-93
2023/09/24 04:37:45;;;;;;;36.17;34.77;;;;;;;;;;5040050;28;20187;-92
2023/09/24 04:40:12;;;;;;;36.07;34.70;;;;;;;;;;5038513;28;20272;-91
2023/09/24 04:42:41;;;;;;;34.17;32.87;;;;;;;;;;5030483;28;20191;-92
2023/09/24 04:45:07;;;;;;;35.63;34.43;;;;;;;;;;5018456;28;20193;-92
2023/09/24 04:47:34;;;;;;;31.47;30.37;;;;;;;;;;5010943;28;20188;-92
2023/09/24 04:50:01;;;;;;;33.87;32.67;;;;;;;;;;5039256;28;20212;-91
2023/09/24 04:52:27;;;;;;;34.23;32.97;;;;;;;;;;5034849;28;20193;-90
2023/09/24 04:54:54;;;;;;;33.60;32.30;;;;;;;;;;5031099;28;20188;-92
2023/09/24 04:57:20;;;;;;;34.27;33.07;;;;;;;;;;5039366;28;20242;-91
2023/09/24 04:59:47;;;;;;;33.40;32.17;;;;;;;;;;5032852;28;20201;-92
2023/09/24 05:02:13;;;;;;;34.03;32.83;;;;;;;;;;5038463;28;20558;-91
2023/09/24 05:04:39;;;;;;;34.73;33.53;;;;;;;;;;5035713;28;20215;-93
2023/09/24 05:07:05;;;;;;;35.77;34.47;;;;;;;;;;5030358;28;20193;-92
2023/09/24 05:09:31;;;;;;;33.77;32.57;;;;;;;;;;5037742;28;20213;-92
2023/09/24 05:11:58;;;;;;;32.97;31.77;;;;;;;;;;5036504;28;20201;-93
2023/09/24 05:14:23;;;;;;;33.30;32.17;;;;;;;;;;5036493;28;20185;-91
2023/09/24 05:16:51;;;;;;;34.87;33.53;;;;;;;;;;5024978;28;20268;-91
2023/09/24 05:19:17;;;;;;;34.37;33.17;;;;;;;;;;4999982;28;20222;-89
2023/09/24 05:21:44;;;;;;;34.03;32.93;;;;;;;;;;5027549;28;20192;-91
2023/09/24 05:24:11;;;;;;;32.83;31.73;;;;;;;;;;5019202;28;20189;-91
2023/09/24 05:26:37;;;;;;;33.77;32.67;;;;;;;;;;5036467;28;20204;-91
2023/09/24 05:29:03;;;;;;;34.00;32.60;;;;;;;;;;5030151;28;20543;-93
2023/09/24 05:31:29;;;;;;;32.53;31.43;;;;;;;;;;5018365;28;20692;-92
2023/09/24 05:33:56;;;;;;;34.50;33.20;;;;;;;;;;5035873;28;20701;-93
2023/09/24 05:36:22;;;;;;;33.87;32.67;;;;;;;;;;5018347;28;20180;-91
2023/09/24 05:38:49;;;;;;;33.47;31.97;;;;;;;;;;5024524;28;20185;-92
2023/09/24 05:41:16;;;;;;;35.80;34.57;;;;;;;;;;5037251;28;20224;-92
2023/09/24 05:43:44;;;;;;;32.17;30.93;;;;;;;;;;5036837;28;20185;-94
2023/09/24 05:46:11;;;;;;;32.27;31.17;;;;;;;;;;5022338;28;20213;-92
2023/09/24 05:48:37;;;;;;;34.67;33.47;;;;;;;;;;5024276;28;20215;-91
2023/09/24 05:51:04;;;;;;;35.17;33.93;;;;;;;;;;5023497;28;20277;-92
2023/09/24 05:53:30;;;;;;;32.73;31.33;;;;;;;;;;5027619;28;20189;-93
2023/09/24 05:55:56;;;;;;;34.60;33.13;;;;;;;;;;5028594;28;20580;-93
2023/09/24 05:58:22;;;;;;;34.80;33.33;;;;;;;;;;5035530;28;20307;-93
2023/09/24 06:00:50;;;;;;;33.83;32.33;;;;;;;;;;5038670;28;20212;-93
2023/09/24 06:03:16;;;;;;;32.57;31.37;;;;;;;;;;5025118;28;20277;-92
2023/09/24 06:05:42;;;;;;;34.07;32.80;;;;;;;;;;5021987;28;20197;-91
2023/09/24 06:08:08;;;;;;;34.13;32.83;;;;;;;;;;5035164;28;20181;-92
2023/09/24 06:10:35;;;;;;;33.10;31.63;;;;;;;;;;5009694;28;20217;-91
2023/09/24 06:13:01;;;;;;;34.47;33.27;;;;;;;;;;5039945;28;20548;-91
2023/09/24 06:15:27;;;;;;;34.50;33.30;;;;;;;;;;5021384;28;20184;-93
2023/09/24 06:17:53;;;;;;;39.63;38.27;;;;;;;;;;5036537;28;20269;-92
2023/09/24 06:20:19;;;;;;;36.93;35.23;;;;;;;;;;5032462;28;20215;-93
2023/09/24 06:22:46;;;;;;;37.13;35.83;;;;;;;;;;5040823;28;20215;-92
2023/09/24 06:25:12;;;;;;;37.70;36.30;;;;;;;;;;5039614;28;20185;-90
2023/09/24 06:27:40;;;;;;;38.57;37.17;;;;;;;;;;5022493;28;20195;-93
2023/09/24 06:30:09;;;;;;;37.93;36.43;;;;;;;;;;5041244;28;20217;-93
2023/09/24 06:32:35;;;;;;;39.97;38.27;;;;;;;;;;5041692;28;20185;-92
2023/09/24 06:35:02;;;;;;;39.33;38.00;;;;;;;;;;5027996;28;20182;-94
2023/09/24 06:37:29;;;;;;;38.73;37.20;;;;;;;;;;5029169;28;20529;-92
2023/09/24 06:39:55;;;;;;;43.80;42.00;;;;;;;;;;5028470;28;20216;-93
2023/09/24 06:42:22;;;;;;;40.13;38.70;;;;;;;;;;5012289;28;20181;-91
2023/09/24 06:44:48;;;;;;;38.77;37.27;;;;;;;;;;5014080;28;20192;-93
2023/09/24 06:47:14;;;;;;;41.73;39.63;;;;;;;;;;5028186;28;20194;-92
2023/09/24 06:49:40;;;;;;;42.93;41.53;;;;;;;;;;5030453;28;20220;-92
2023/09/24 06:52:06;;;;;;;42.13;40.53;;;;;;;;;;5036770;28;20190;-92
2023/09/24 06:54:35;;;;;;;39.90;38.50;;;;;;;;;;5035009;28;20194;-93
2023/09/24 06:57:01;;;;;;;39.80;38.50;;;;;;;;;;5025670;28;20238;-91
2023/09/24 06:59:28;;;;;;;40.87;39.50;;;;;;;;;;5027709;28;20211;-92
2023/09/24 07:01:54;;;;;;;40.73;39.40;;;;;;;;;;5037646;28;20742;-91
2023/09/24 07:04:20;;;;;;;39.57;38.17;;;;;;;;;;5044818;28;20216;-94
2023/09/24 07:06:46;;;;;;;39.70;38.27;;;;;;;;;;5057178;28;20168;-93
2023/09/24 07:09:12;;;;;;;39.90;38.50;;;;;;;;;;5045017;28;20242;-93
2023/09/24 07:11:38;;;;;;;39.23;37.90;;;;;;;;;;5054715;28;20212;-93
2023/09/24 07:14:05;;;;;;;37.70;36.43;;;;;;;;;;5050859;28;20174;-95
2023/09/24 07:16:32;;;;;;;37.63;36.33;;;;;;;;;;5059366;28;20192;-93
2023/09/24 07:18:58;;;;;;;36.43;35.03;;;;;;;;;;5035363;28;20178;-92
2023/09/24 07:21:26;;;;;;;35.73;34.53;;;;;;;;;;5043419;28;20240;-90
2023/09/24 07:23:52;;;;;;;34.47;33.07;;;;;;;;;;5041724;28;20189;-93
2023/09/24 07:26:19;;;;;;;34.97;33.57;;;;;;;;;;5035549;28;20767;-93
2023/09/24 07:28:46;;;;;;;34.33;33.13;;;;;;;;;;5034434;28;20185;-93
2023/09/24 07:31:22;;;;;;;35.17;33.97;;;;;;;;;;5031221;28;20225;-92
2023/09/24 07:33:48;;;;;;;34.50;33.37;;;;;;;;;;5039617;28;20245;-91
2023/09/24 07:36:15;;;;;;;34.43;33.13;;;;;;;;;;5039003;28;20191;-92
2023/09/24 07:38:41;;;;;;;38.40;36.83;;;;;;;;;;5022662;28;20183;-92
2023/09/24 07:41:07;;;;;;;38.07;36.73;;;;;;;;;;5042473;28;20215;-93
2023/09/24 07:43:37;;;;;;;39.30;37.90;;;;;;;;;;5032524;28;20762;-89
2023/09/24 07:46:04;;;;;;;38.77;37.47;;;;;;;;;;5018201;28;20192;-90
2023/09/24 07:48:30;;;;;;;38.87;37.37;;;;;;;;;;5022244;28;20203;-90
2023/09/24 07:50:57;;;;;;;39.00;37.70;;;;;;;;;;5017854;28;20223;-91
2023/09/24 07:53:23;;;;;;;40.40;39.03;;;;;;;;;;5020527;28;20189;-90
2023/09/24 07:56:06;;;;;;;41.77;40.33;;;;;;;;;;5016780;28;20185;-91
2023/09/24 07:58:33;;;;;;;40.67;39.27;;;;;;;;;;5020870;28;20195;-91
2023/09/24 08:01:03;;;;;;;42.20;40.80;;;;;;;;;;5041270;28;20215;-90
2023/09/24 08:03:30;;;;;;;41.93;40.33;;;;;;;;;;5043306;28;20217;-86
2023/09/24 08:05:56;;;;;;;41.07;39.73;;;;;;;;;;5040143;28;20189;-90
2023/09/24 08:08:23;;;;;;;41.90;40.40;;;;;;;;;;5035700;28;20211;-90
2023/09/24 08:10:50;;;;;;;43.03;41.57;;;;;;;;;;5029860;28;20218;-90
2023/09/24 08:13:16;;;;;;;42.53;41.07;;;;;;;;;;5021174;28;20195;-91
2023/09/24 08:15:42;;;;;;;44.40;42.60;;;;;;;;;;5012112;28;20203;-91
2023/09/24 08:18:09;;;;;;;43.97;42.50;;;;;;;;;;5020529;28;20197;-89
2023/09/24 08:20:38;;;;;;;47.10;45.50;;;;;;;;;;5018449;28;20215;-89
2023/09/24 08:23:04;;;;;;;43.33;41.83;;;;;;;;;;5018947;28;20196;-90
2023/09/24 08:25:31;;;;;;;44.87;43.37;;;;;;;;;;5019036;28;20195;-90
2023/09/24 08:27:57;;;;;;;41.23;39.83;;;;;;;;;;5023196;28;20220;-91
2023/09/24 08:30:23;;;;;;;43.93;42.40;;;;;;;;;;5023030;28;21208;-92
2023/09/24 08:32:49;;;;;;;45.33;43.73;;;;;;;;;;5023830;28;20192;-91
2023/09/24 08:35:15;;;;;;;44.07;42.43;;;;;;;;;;5023341;28;20200;-92
2023/09/24 08:37:41;;;;;;;44.77;43.17;;;;;;;;;;5022925;28;20181;-93
2023/09/24 08:40:10;;;;;;;46.63;45.03;;;;;;;;;;5016413;28;20224;-93
2023/09/24 08:42:37;;;;;;;44.97;43.37;;;;;;;;;;5022143;28;20616;-92
2023/09/24 08:45:14;;;;;;;47.30;45.40;;;;;;;;;;5008004;28;20198;-92
2023/09/24 08:47:41;;;;;;;46.13;44.53;;;;;;;;;;5007361;28;20203;-93
2023/09/24 08:50:08;;;;;;;46.30;44.70;;;;;;;;;;5014252;28;20429;-90
2023/09/24 08:52:41;;;;;;;46.03;44.33;;;;;;;;;;5013588;28;20270;-94
2023/09/24 08:55:11;;;;;;;44.67;42.97;;;;;;;;;;5027424;28;20190;-92
2023/09/24 08:57:38;;;;;;;45.70;44.00;;;;;;;;;;5001692;28;20199;-92
2023/09/24 09:00:09;;;;;;;45.97;44.07;;;;;;;;;;5019338;28;20963;-90
2023/09/24 09:02:36;;;;;;;47.20;45.47;;;;;;;;;;5003288;28;20186;-92
2023/09/24 09:05:09;;;;;;;47.90;46.23;;;;;;;;;;5022479;28;20752;-93
2023/09/24 09:07:35;;;;;;;46.83;45.27;;;;;;;;;;5014319;28;20204;-94
2023/09/24 09:10:05;;;;;;;48.87;47.13;;;;;;;;;;5021685;28;21363;-92
2023/09/24 09:12:31;;;;;;;53.43;51.63;;;;;;;;;;5024903;28;20216;-94
2023/09/24 09:14:57;;;;;;;50.83;48.83;;;;;;;;;;5008055;28;20190;-92
2023/09/24 09:17:24;;;;;;;47.63;45.73;;;;;;;;;;5023588;28;20196;-93
2023/09/24 09:19:55;;;;;;;52.53;49.90;;;;;;;;;;5025390;28;20205;-92
2023/09/24 09:22:27;;;;;;;43.33;41.83;;;;;;;;;;5019698;28;20208;-93
2023/09/24 09:25:04;;;;;;;43.03;41.43;;;;;;;;;;5024896;28;20186;-92
2023/09/24 09:27:31;;;;;;;43.33;41.73;;;;;;;;;;5019948;28;20200;-91
2023/09/24 09:30:17;;;;;;;43.20;41.47;;;;;;;;;;5019527;28;20714;-91
2023/09/24 09:32:44;;;;;;;46.20;44.50;;;;;;;;;;5012703;28;20196;-91
2023/09/24 09:35:11;;;;;;;41.67;40.10;;;;;;;;;;5025832;28;20196;-91
2023/09/24 09:37:41;;;;;;;45.57;43.97;;;;;;;;;;5027742;28;20187;-91
2023/09/24 09:40:07;;;;;;;51.30;49.60;;;;;;;;;;5034381;28;20622;-91
2023/09/24 09:42:52;;;;;;;51.53;49.67;;;;;;;;;;5025173;28;20205;-93
2023/09/24 09:45:18;;;;;;;58.30;56.40;;;;;;;;;;5031587;28;20733;-91
2023/09/24 09:48:00;;;;;;;66.40;64.20;;;;;;;;;;5012274;28;20190;-92
2023/09/24 09:50:26;;;;;;;67.40;64.60;;;;;;;;;;5009448;28;20225;-94
2023/09/24 09:52:54;;;;;;;66.43;64.20;;;;;;;;;;5032528;28;20189;-91
2023/09/24 09:55:21;;;;;;;58.43;56.47;;;;;;;;;;5012011;28;20211;-93
2023/09/24 09:57:47;;;;;;;59.73;57.67;;;;;;;;;;5015150;28;20224;-91
2023/09/24 10:00:16;;;;;;;60.20;58.10;;;;;;;;;;5029017;28;20211;-92
2023/09/24 10:02:47;;;;;;;59.42;57.42;;;;;;;;;;5025833;28;20209;-93
2023/09/24 10:05:14;;;;;;;59.15;57.05;;;;;;;;;;5026883;28;20191;-93
2023/09/24 10:07:43;;;;;;;60.47;58.47;;;;;;;;;;5019575;28;20261;-92
2023/09/24 10:10:42;;;;;;;58.83;56.92;;;;;;;;;;5035512;28;20216;-93
2023/09/24 10:13:28;;;;;;;54.05;52.22;;;;;;;;;;5004473;28;20283;-92
2023/09/24 10:15:54;;;;;;;57.47;55.50;;;;;;;;;;5011987;28;20184;-96
2023/09/24 10:18:20;;;;;;;56.72;54.83;;;;;;;;;;5033895;28;20646;-95
2023/09/24 10:20:49;;;;;;;58.80;56.63;;;;;;;;;;5034621;28;20225;-93
2023/09/24 10:23:31;;;;;;;59.35;57.08;;;;;;;;;;5035653;28;20192;-94
2023/09/24 10:25:59;;;;;;;63.03;60.92;;;;;;;;;;5036312;28;20196;-93
2023/09/24 10:28:44;;;;;;;76.07;73.60;;;;;;;;;;5014515;28;20377;-93
2023/09/24 10:31:12;;;;;;;76.88;74.20;;;;;;;;;;5013319;28;20786;-94
2023/09/24 10:33:56;;;;;;;79.65;77.13;;;;;;;;;;5039583;28;20192;-93
2023/09/24 10:36:28;;;;;;;82.85;80.25;;;;;;;;;;5022202;28;20177;-93
2023/09/24 10:39:01;;;;;;;77.25;74.75;;;;;;;;;;5026512;28;20212;-92
2023/09/24 10:41:27;;;;;;;62.63;60.63;;;;;;;;;;5027833;28;20239;-93
2023/09/24 10:44:12;;;;;;;63.78;61.60;;;;;;;;;;5024519;28;20194;-93
2023/09/24 10:46:38;;;;;;;69.95;67.63;;;;;;;;;;5021314;28;20204;-91
2023/09/24 10:49:04;;;;;;;68.88;66.68;;;;;;;;;;5005828;28;20212;-94
2023/09/24 10:51:30;;;;;;;72.32;70.00;;;;;;;;;;5025640;28;20771;-93
2023/09/24 10:54:11;;;;;;;65.55;63.30;;;;;;;;;;5024643;28;20228;-93
2023/09/24 10:56:38;;;;;;;61.55;59.38;;;;;;;;;;5029310;28;20197;-92
2023/09/24 10:59:04;;;;;;;61.05;58.95;;;;;;;;;;5026101;28;20177;-93
2023/09/24 11:01:30;;;;;;;59.20;57.17;;;;;;;;;;5024786;28;20715;-92
2023/09/24 11:03:56;;;;;;;68.43;66.13;;;;;;;;;;5011873;28;20184;-92
2023/09/24 11:06:32;;;;;;;61.72;59.63;;;;;;;;;;5004163;28;20189;-93
2023/09/24 11:09:17;;;;;;;62.65;60.47;;;;;;;;;;5022416;28;20211;-93
2023/09/24 11:11:43;;;;;;;58.85;56.83;;;;;;;;;;5025704;28;20219;-93
2023/09/24 11:14:17;;;;;;;62.85;60.85;;;;;;;;;;5024060;28;20231;-91
2023/09/24 11:16:43;;;;;;;1999.90;999.90;;;;;;;;;;5019141;28;20217;-93
2023/09/24 11:19:09;;;;;;;1999.90;999.90;;;;;;;;;;5025011;28;20181;-93
2023/09/24 11:21:35;;;;;;;1999.90;999.90;;;;;;;;;;5022716;28;20190;-90
2023/09/24 11:24:17;;;;;;;1999.90;999.90;;;;;;;;;;5022454;28;20197;-91
2023/09/24 11:26:43;;;;;;;1999.90;999.90;;;;;;;;;;5017260;28;20181;-93
2023/09/24 11:29:09;;;;;;;1999.90;999.90;;;;;;;;;;5022153;28;20189;-92
2023/09/24 11:31:35;;;;;;;1999.90;999.90;;;;;;;;;;5023087;28;20242;-94
2023/09/24 11:34:01;;;;;;;1999.90;999.90;;;;;;;;;;5023917;28;20227;-95
2023/09/24 11:36:28;;;;;;;1999.90;999.90;;;;;;;;;;5019655;28;20185;-94
2023/09/24 11:39:10;;;;;;;1999.90;999.90;;;;;;;;;;5022914;28;20186;-91
2023/09/24 11:41:36;;;;;;;1999.90;999.90;;;;;;;;;;5022808;28;20184;-91
2023/09/24 11:44:05;;;;;;;1999.90;999.90;;;;;;;;;;5026222;28;20185;-92
2023/09/24 11:46:32;;;;;;;1999.90;999.90;;;;;;;;;;5021640;28;20181;-92
2023/09/24 11:48:59;;;;;;;1999.90;999.90;;;;;;;;;;5019239;28;20189;-88
2023/09/24 11:51:26;;;;;;;1999.90;999.90;;;;;;;;;;5016574;28;20243;-88
2023/09/24 11:53:52;;;;;;;1999.90;999.90;;;;;;;;;;5018023;28;20719;-91
2023/09/24 11:56:18;;;;;;;1999.90;999.90;;;;;;;;;;5019057;28;20196;-94
2023/09/24 11:58:44;;;;;;;1999.90;999.90;;;;;;;;;;5024237;28;20220;-93
2023/09/24 12:01:11;;;;;;;1999.90;999.90;;;;;;;;;;5028330;28;20275;-93
2023/09/24 12:03:38;;;;;;;1999.90;999.90;;;;;;;;;;5009991;28;20193;-95
2023/09/24 12:06:04;;;;;;;1999.90;999.90;;;;;;;;;;5020822;28;20185;-91
2023/09/24 12:08:30;;;;;;;1999.90;999.90;;;;;;;;;;5028735;28;20185;-93
2023/09/24 12:10:56;;;;;;;1999.90;999.90;;;;;;;;;;5024279;28;20218;-94
2023/09/24 12:13:22;;;;;;;1999.90;999.90;;;;;;;;;;5023627;28;20650;-93
2023/09/24 12:15:49;;;;;;;1999.90;999.90;;;;;;;;;;5021416;28;20181;-95
2023/09/24 12:18:15;;;;;;;1999.90;999.90;;;;;;;;;;5024472;28;20186;-94
2023/09/24 12:20:42;;;;;;;1999.90;999.90;;;;;;;;;;5019276;28;20271;-92
2023/09/24 12:23:09;;;;;;;1999.90;999.90;;;;;;;;;;5022418;28;20207;-91
2023/09/24 12:25:38;;;;;;;1999.90;999.90;;;;;;;;;;5020573;28;20181;-93
2023/09/24 12:28:06;;;;;;;1999.90;999.90;;;;;;;;;;5019239;28;20189;-94
2023/09/24 12:30:32;;;;;;;1999.90;999.90;;;;;;;;;;5018526;28;20223;-92
2023/09/24 12:32:58;;;;;;;1999.90;999.90;;;;;;;;;;5004167;28;20181;-94
2023/09/24 12:35:24;;;;;;;1999.90;999.90;;;;;;;;;;5020027;28;20197;-93
2023/09/24 12:37:54;;;;;;;1999.90;999.90;;;;;;;;;;5016299;28;20214;-92
2023/09/24 12:40:20;;;;;;;1999.90;999.90;;;;;;;;;;5023397;28;20215;-92
2023/09/24 12:42:46;;;;;;;1999.90;999.90;;;;;;;;;;5022560;28;20189;-92
2023/09/24 12:45:12;;;;;;;1999.90;999.90;;;;;;;;;;5018515;28;20210;-92
2023/09/24 12:47:39;;;;;;;1999.90;999.90;;;;;;;;;;5018410;28;20283;-93
2023/09/24 12:50:06;;;;;;;1999.90;999.90;;;;;;;;;;5022445;28;20237;-92
2023/09/24 12:52:42;;;;;;;1999.90;999.90;;;;;;;;;;5019316;28;20756;-93
2023/09/24 12:55:10;;;;;;;1999.90;999.90;;;;;;;;;;5006089;28;20193;-92
2023/09/24 12:57:36;;;;;;;1999.90;999.90;;;;;;;;;;5019990;28;20197;-92
2023/09/24 13:00:10;;;;;;;1999.90;999.90;;;;;;;;;;5026207;28;20209;-95
2023/09/24 13:02:38;;;;;;;1999.90;999.90;;;;;;;;;;5024857;28;20188;-95
2023/09/24 13:05:04;;;;;;;1999.90;999.90;;;;;;;;;;5021287;28;20215;-93
2023/09/24 13:07:30;;;;;;;1999.90;999.90;;;;;;;;;;5021069;28;20190;-93
2023/09/24 13:09:56;;;;;;;1999.90;999.90;;;;;;;;;;5016406;28;20234;-95
2023/09/24 13:12:22;;;;;;;1999.90;999.90;;;;;;;;;;5021451;28;20209;-95
2023/09/24 13:14:48;;;;;;;1999.90;999.90;;;;;;;;;;5024013;28;20283;-96
2023/09/24 13:17:14;;;;;;;1999.90;999.90;;;;;;;;;;5023091;28;20234;-94
2023/09/24 13:19:40;;;;;;;1999.90;999.90;;;;;;;;;;5025176;28;20208;-92
2023/09/24 13:22:06;;;;;;;1999.90;999.90;;;;;;;;;;5028702;28;20266;-93
2023/09/24 13:24:38;;;;;;;1999.90;999.90;;;;;;;;;;5023175;28;20184;-92
2023/09/24 13:27:04;;;;;;;1999.90;999.90;;;;;;;;;;5018221;28;20687;-93
2023/09/24 13:29:30;;;;;;;1999.90;999.90;;;;;;;;;;5018889;28;20213;-94
2023/09/24 13:31:56;;;;;;;1999.90;999.90;;;;;;;;;;5019843;28;20281;-92
2023/09/24 13:34:22;;;;;;;1999.90;999.90;;;;;;;;;;4999707;28;20197;-94
2023/09/24 13:36:48;;;;;;;1999.90;999.90;;;;;;;;;;5017912;28;20196;-94
2023/09/24 13:39:14;;;;;;;1999.90;999.90;;;;;;;;;;5026107;28;20181;-91
2023/09/24 13:41:40;;;;;;;1999.90;999.90;;;;;;;;;;5019586;28;20832;-93
2023/09/24 13:44:06;;;;;;;1999.90;999.90;;;;;;;;;;5022746;28;20257;-92
2023/09/24 13:46:33;;;;;;;1999.90;999.90;;;;;;;;;;5026195;28;20189;-93
2023/09/24 13:49:02;;;;;;;1999.90;999.90;;;;;;;;;;5003767;28;20186;-93
2023/09/24 13:51:28;;;;;;;1999.90;999.90;;;;;;;;;;5021337;28;20221;-93
2023/09/24 13:53:54;;;;;;;1999.90;999.90;;;;;;;;;;5022626;28;20196;-93
2023/09/24 13:56:20;;;;;;;1999.90;999.90;;;;;;;;;;5014367;28;20177;-93
2023/09/24 13:58:46;;;;;;;1999.90;999.90;;;;;;;;;;5019918;28;20194;-94
2023/09/24 14:01:12;;;;;;;1999.90;999.90;;;;;;;;;;5007830;28;20230;-93
2023/09/24 14:03:39;;;;;;;1999.90;999.90;;;;;;;;;;5025938;28;20189;-93
2023/09/24 14:06:05;;;;;;;1999.90;999.90;;;;;;;;;;5012100;28;20670;-94
2023/09/24 14:14:10;;;;;;;1999.90;999.90;;;;;;;;;;5019897;28;20266;-92
2023/09/24 14:16:44;;;;;;;1999.90;999.90;;;;;;;;;;5016582;28;20244;-93